createdAt,value
2017-11-18T00:00:40.945Z,101573.28
2017-11-18T00:01:43.408Z,101569.86
2017-11-18T00:02:45.868Z,101570.05
2017-11-18T00:03:48.346Z,101572.84
2017-11-18T00:04:50.804Z,101569.74
2017-11-18T00:05:53.301Z,101569.81
2017-11-18T00:06:55.768Z,101571.56
2017-11-18T00:07:58.252Z,101575.89
2017-11-18T00:09:00.716Z,101572.13
2017-11-18T00:10:03.197Z,101568.67
2017-11-18T00:11:05.656Z,101573.00
2017-11-18T00:12:08.115Z,101575.72
2017-11-18T00:13:10.603Z,101578.13
2017-11-18T00:14:13.100Z,101580.80
2017-11-18T00:15:15.580Z,101578.70
2017-11-18T00:16:18.059Z,101573.59
2017-11-18T00:17:20.538Z,101578.27
2017-11-18T00:18:23.010Z,101575.92
2017-11-18T00:19:25.526Z,101566.20
2017-11-18T00:20:27.988Z,101572.66
2017-11-18T00:21:30.462Z,101573.41
2017-11-18T00:22:32.962Z,101572.09
2017-11-18T00:23:35.448Z,101571.09
2017-11-18T00:24:37.935Z,101573.38
2017-11-18T00:25:40.414Z,101571.99
2017-11-18T00:26:42.892Z,101570.30
2017-11-18T00:27:45.372Z,101559.02
2017-11-18T00:28:47.840Z,101565.41
2017-11-18T00:29:50.308Z,101567.42
2017-11-18T00:30:52.786Z,101564.28
2017-11-18T00:31:55.248Z,101564.73
2017-11-18T00:32:57.749Z,101563.41
2017-11-18T00:34:00.230Z,101564.04
2017-11-18T00:35:02.703Z,101567.27
2017-11-18T00:36:05.178Z,101560.00
2017-11-18T00:37:07.688Z,101559.09
2017-11-18T00:38:10.133Z,101560.03
2017-11-18T00:39:12.615Z,101560.75
2017-11-18T00:40:15.097Z,101563.16
2017-11-18T00:41:17.569Z,101557.33
2017-11-18T00:42:20.041Z,101557.02
2017-11-18T00:43:22.519Z,101556.73
2017-11-18T00:44:25.008Z,101557.39
2017-11-18T00:45:27.486Z,101557.67
2017-11-18T00:46:29.949Z,101552.49
2017-11-18T00:47:32.433Z,101550.42
2017-11-18T00:48:34.912Z,101555.65
2017-11-18T00:49:37.404Z,101561.13
2017-11-18T00:50:39.900Z,101557.34
2017-11-18T00:51:42.376Z,101554.66
2017-11-18T00:52:44.901Z,101555.64
2017-11-18T00:53:47.409Z,101554.91
2017-11-18T00:54:49.871Z,101554.50
2017-11-18T00:55:52.344Z,101556.61
2017-11-18T00:56:54.828Z,101557.65
2017-11-18T00:57:57.307Z,101557.12
2017-11-18T00:58:59.769Z,101558.72
2017-11-18T01:00:02.250Z,101556.75
2017-11-18T01:01:04.729Z,101562.50
2017-11-18T01:02:07.210Z,101561.34
2017-11-18T01:03:09.680Z,101559.74
2017-11-18T01:04:12.154Z,101553.03
2017-11-18T01:05:14.621Z,101558.36
2017-11-18T01:06:17.104Z,101557.20
2017-11-18T01:07:19.582Z,101544.98
2017-11-18T01:08:22.069Z,101549.69
2017-11-18T01:09:24.546Z,101553.41
2017-11-18T01:10:27.037Z,101553.41
2017-11-18T01:11:29.500Z,101550.47
2017-11-18T01:12:31.978Z,101552.37
2017-11-18T01:13:34.448Z,101556.26
2017-11-18T01:14:36.913Z,101551.95
2017-11-18T01:15:39.390Z,101552.39
2017-11-18T01:16:41.873Z,101544.98
2017-11-18T01:17:44.336Z,101545.16
2017-11-18T01:18:46.815Z,101541.92
2017-11-18T01:19:49.296Z,101545.19
2017-11-18T01:20:51.785Z,101537.78
2017-11-18T01:21:54.262Z,101541.92
2017-11-18T01:22:56.740Z,101537.70
2017-11-18T01:23:59.223Z,101541.27
2017-11-18T01:25:01.728Z,101543.69
2017-11-18T01:26:04.196Z,101541.94
2017-11-18T01:27:06.665Z,101543.30
2017-11-18T01:28:09.143Z,101538.16
2017-11-18T01:29:11.605Z,101537.98
2017-11-18T01:30:14.071Z,101530.86
2017-11-18T01:31:16.560Z,101528.13
2017-11-18T01:32:19.048Z,101528.61
2017-11-18T01:33:21.526Z,101528.98
2017-11-18T01:34:24.272Z,101527.92
2017-11-18T01:35:26.783Z,101534.20
2017-11-18T01:36:29.269Z,101527.27
2017-11-18T01:37:31.761Z,101525.95
2017-11-18T01:38:34.238Z,101526.05
2017-11-18T01:39:36.714Z,101524.92
2017-11-18T01:40:39.184Z,101522.34
2017-11-18T01:41:41.696Z,101519.02
2017-11-18T01:42:44.227Z,101516.00
2017-11-18T01:43:46.724Z,101519.88
2017-11-18T01:44:49.187Z,101521.13
2017-11-18T01:45:51.684Z,101517.91
2017-11-18T01:46:54.167Z,101521.30
2017-11-18T01:47:56.623Z,101511.87
2017-11-18T01:48:59.154Z,101510.50
2017-11-18T01:50:01.873Z,101516.61
2017-11-18T01:51:04.364Z,101515.95
2017-11-18T01:52:06.848Z,101522.85
2017-11-18T01:53:09.328Z,101516.42
2017-11-18T01:54:11.809Z,101508.63
2017-11-18T01:55:14.333Z,101506.75
2017-11-18T01:56:16.820Z,101505.41
2017-11-18T01:57:19.288Z,101504.25
2017-11-18T01:58:21.777Z,101497.73
2017-11-18T01:59:24.245Z,101500.00
2017-11-18T02:00:26.757Z,101502.42
2017-11-18T02:01:29.236Z,101496.81
2017-11-18T02:02:43.530Z,101499.48
2017-11-18T02:03:45.996Z,101501.65
2017-11-18T02:04:48.462Z,101493.91
2017-11-18T02:05:50.964Z,101492.16
2017-11-18T02:06:53.452Z,101489.56
2017-11-18T02:07:55.937Z,101484.86
2017-11-18T02:08:58.413Z,101485.23
2017-11-18T02:10:00.898Z,101488.27
2017-11-18T02:11:03.374Z,101490.76
2017-11-18T02:12:05.844Z,101485.95
2017-11-18T02:13:08.321Z,101483.87
2017-11-18T02:14:10.790Z,101486.17
2017-11-18T02:15:13.264Z,101479.64
2017-11-18T02:16:15.757Z,101483.72
2017-11-18T02:17:18.221Z,101474.39
2017-11-18T02:18:20.702Z,101471.72
2017-11-18T02:19:23.183Z,101470.34
2017-11-18T02:20:25.704Z,101471.88
2017-11-18T02:21:28.186Z,101468.87
2017-11-18T02:22:30.648Z,101469.19
2017-11-18T02:23:33.130Z,101459.03
2017-11-18T02:24:35.654Z,101458.45
2017-11-18T02:25:38.129Z,101462.06
2017-11-18T02:26:40.593Z,101456.70
2017-11-18T02:27:43.069Z,101453.77
2017-11-18T02:28:45.584Z,101455.94
2017-11-18T02:29:48.061Z,101446.10
2017-11-18T02:30:50.559Z,101452.22
2017-11-18T02:31:53.024Z,101447.55
2017-11-18T02:32:55.493Z,101452.98
2017-11-18T02:33:57.970Z,101449.32
2017-11-18T02:35:00.454Z,101449.39
2017-11-18T02:36:02.925Z,101450.02
2017-11-18T02:37:05.403Z,101446.29
2017-11-18T02:38:07.881Z,101445.73
2017-11-18T02:39:10.353Z,101440.80
2017-11-18T02:40:12.834Z,101440.66
2017-11-18T02:41:15.304Z,101440.83
2017-11-18T02:42:17.776Z,101438.58
2017-11-18T02:43:20.236Z,101441.61
2017-11-18T02:44:22.717Z,101437.28
2017-11-18T02:45:25.180Z,101436.65
2017-11-18T02:46:27.658Z,101438.27
2017-11-18T02:47:30.176Z,101435.03
2017-11-18T02:48:32.671Z,101436.73
2017-11-18T02:49:35.179Z,101437.55
2017-11-18T02:50:37.660Z,101428.05
2017-11-18T02:51:40.121Z,101431.69
2017-11-18T02:52:42.585Z,101429.25
2017-11-18T02:53:45.044Z,101431.11
2017-11-18T02:54:47.533Z,101427.05
2017-11-18T02:55:50.003Z,101432.06
2017-11-18T02:56:52.480Z,101430.32
2017-11-18T02:57:54.956Z,101421.87
2017-11-18T02:58:57.443Z,101417.95
2017-11-18T02:59:59.917Z,101426.72
2017-11-18T03:01:02.398Z,101420.05
2017-11-18T03:02:04.889Z,101421.62
2017-11-18T03:03:07.365Z,101417.69
2017-11-18T03:04:09.843Z,101421.64
2017-11-18T03:05:12.324Z,101421.30
2017-11-18T03:06:14.795Z,101418.90
2017-11-18T03:07:17.272Z,101421.57
2017-11-18T03:08:19.754Z,101421.88
2017-11-18T03:09:22.220Z,101424.58
2017-11-18T03:10:24.698Z,101421.78
2017-11-18T03:11:27.316Z,101418.97
2017-11-18T03:12:29.780Z,101420.94
2017-11-18T03:13:32.275Z,101419.50
2017-11-18T03:14:34.768Z,101422.27
2017-11-18T03:15:37.252Z,101422.29
2017-11-18T03:16:39.736Z,101422.09
2017-11-18T03:17:42.216Z,101423.15
2017-11-18T03:18:44.697Z,101418.94
2017-11-18T03:19:47.179Z,101417.80
2017-11-18T03:20:49.667Z,101416.27
2017-11-18T03:21:52.154Z,101415.05
2017-11-18T03:22:54.667Z,101411.55
2017-11-18T03:23:57.144Z,101415.69
2017-11-18T03:24:59.641Z,101413.81
2017-11-18T03:26:02.122Z,101408.89
2017-11-18T03:27:04.613Z,101410.51
2017-11-18T03:28:07.098Z,101412.36
2017-11-18T03:29:09.560Z,101416.58
2017-11-18T03:30:12.041Z,101404.64
2017-11-18T03:31:14.535Z,101409.82
2017-11-18T03:32:17.018Z,101404.75
2017-11-18T03:33:19.493Z,101410.47
2017-11-18T03:34:21.975Z,101411.51
2017-11-18T03:35:24.476Z,101409.55
2017-11-18T03:36:26.952Z,101412.94
2017-11-18T03:37:29.435Z,101410.78
2017-11-18T03:38:31.929Z,101411.51
2017-11-18T03:39:34.400Z,101406.64
2017-11-18T03:40:36.879Z,101402.75
2017-11-18T03:41:39.385Z,101402.58
2017-11-18T03:42:41.868Z,101406.48
2017-11-18T03:43:44.347Z,101401.38
2017-11-18T03:44:46.823Z,101405.47
2017-11-18T03:45:49.297Z,101403.91
2017-11-18T03:46:51.785Z,101402.63
2017-11-18T03:47:54.247Z,101408.16
2017-11-18T03:48:56.708Z,101404.47
2017-11-18T03:49:59.463Z,101403.33
2017-11-18T03:51:01.946Z,101404.80
2017-11-18T03:52:04.416Z,101407.80
2017-11-18T03:53:06.890Z,101409.84
2017-11-18T03:54:09.361Z,101406.74
2017-11-18T03:55:11.836Z,101398.78
2017-11-18T03:56:14.297Z,101405.69
2017-11-18T03:57:16.793Z,101403.00
2017-11-18T03:58:19.301Z,101406.77
2017-11-18T03:59:21.791Z,101404.50
2017-11-18T04:00:24.252Z,101402.78
2017-11-18T04:01:26.734Z,101401.63
2017-11-18T04:02:29.243Z,101396.44
2017-11-18T04:03:31.722Z,101401.75
2017-11-18T04:04:34.250Z,101398.16
2017-11-18T04:05:36.728Z,101397.42
2017-11-18T04:06:39.249Z,101394.73
2017-11-18T04:07:41.709Z,101398.53
2017-11-18T04:08:44.214Z,101393.47
2017-11-18T04:09:46.682Z,101393.09
2017-11-18T04:10:49.174Z,101389.93
2017-11-18T04:11:51.636Z,101383.28
2017-11-18T04:12:54.119Z,101385.44
2017-11-18T04:13:56.597Z,101378.25
2017-11-18T04:14:59.090Z,101375.91
2017-11-18T04:16:01.571Z,101385.19
2017-11-18T04:17:04.050Z,101387.75
2017-11-18T04:18:06.540Z,101383.46
2017-11-18T04:19:09.020Z,101386.64
2017-11-18T04:20:11.493Z,101389.73
2017-11-18T04:21:13.963Z,101384.48
2017-11-18T04:22:16.443Z,101382.83
2017-11-18T04:23:18.916Z,101383.92
2017-11-18T04:24:21.395Z,101377.42
2017-11-18T04:25:23.885Z,101387.41
2017-11-18T04:26:26.418Z,101373.17
2017-11-18T04:27:28.899Z,101373.41
2017-11-18T04:28:31.374Z,101373.07
2017-11-18T04:29:33.883Z,101378.91
2017-11-18T04:30:36.417Z,101375.66
2017-11-18T04:31:38.853Z,101375.58
2017-11-18T04:32:41.312Z,101379.63
2017-11-18T04:33:43.787Z,101371.95
2017-11-18T04:34:46.263Z,101368.05
2017-11-18T04:35:48.748Z,101376.00
2017-11-18T04:36:51.224Z,101369.33
2017-11-18T04:37:53.699Z,101370.95
2017-11-18T04:38:56.182Z,101371.55
2017-11-18T04:39:58.670Z,101372.00
2017-11-18T04:41:01.145Z,101368.66
2017-11-18T04:42:03.624Z,101364.59
2017-11-18T04:43:06.096Z,101371.56
2017-11-18T04:44:08.577Z,101361.75
2017-11-18T04:45:11.052Z,101368.64
2017-11-18T04:46:13.542Z,101368.16
2017-11-18T04:47:16.025Z,101363.97
2017-11-18T04:48:18.505Z,101360.31
2017-11-18T04:49:20.994Z,101363.33
2017-11-18T04:50:23.478Z,101359.20
2017-11-18T04:51:25.937Z,101357.55
2017-11-18T04:52:28.418Z,101360.89
2017-11-18T04:53:30.902Z,101358.38
2017-11-18T04:54:33.398Z,101357.64
2017-11-18T04:55:35.880Z,101356.75
2017-11-18T04:56:38.341Z,101355.78
2017-11-18T04:57:40.818Z,101355.78
2017-11-18T04:58:43.307Z,101346.28
2017-11-18T04:59:45.762Z,101351.06
2017-11-18T05:00:48.226Z,101350.98
2017-11-18T05:01:50.717Z,101345.94
2017-11-18T05:02:53.217Z,101346.67
2017-11-18T05:03:55.683Z,101348.01
2017-11-18T05:04:58.158Z,101348.23
2017-11-18T05:06:00.623Z,101347.50
2017-11-18T05:07:03.098Z,101344.98
2017-11-18T05:08:05.560Z,101344.73
2017-11-18T05:09:08.037Z,101346.16
2017-11-18T05:10:10.513Z,101344.41
2017-11-18T05:11:12.994Z,101338.39
2017-11-18T05:12:15.493Z,101335.88
2017-11-18T05:13:17.981Z,101332.78
2017-11-18T05:14:20.455Z,101339.31
2017-11-18T05:15:22.942Z,101336.06
2017-11-18T05:16:32.080Z,101340.60
2017-11-18T05:17:34.615Z,101335.73
2017-11-18T05:18:37.079Z,101338.21
2017-11-18T05:19:39.591Z,101330.44
2017-11-18T05:20:42.060Z,101333.01
2017-11-18T05:21:44.535Z,101330.54
2017-11-18T05:22:47.001Z,101329.09
2017-11-18T05:23:49.468Z,101331.86
2017-11-18T05:24:51.966Z,101333.77
2017-11-18T05:25:54.465Z,101328.17
2017-11-18T05:26:56.937Z,101331.18
2017-11-18T05:27:59.409Z,101333.53
2017-11-18T05:29:01.868Z,101333.77
2017-11-18T05:30:04.702Z,101330.53
2017-11-18T05:31:07.167Z,101332.88
2017-11-18T05:32:09.672Z,101331.50
2017-11-18T05:33:12.136Z,101334.98
2017-11-18T05:34:14.608Z,101325.81
2017-11-18T05:35:17.085Z,101334.25
2017-11-18T05:36:19.567Z,101337.30
2017-11-18T05:37:22.051Z,101336.97
2017-11-18T05:38:24.522Z,101329.49
2017-11-18T05:39:26.983Z,101325.75
2017-11-18T05:40:29.457Z,101325.02
2017-11-18T05:41:31.920Z,101320.64
2017-11-18T05:42:34.412Z,101319.49
2017-11-18T05:43:36.911Z,101319.56
2017-11-18T05:44:39.403Z,101314.44
2017-11-18T05:45:41.890Z,101311.48
2017-11-18T05:46:44.411Z,101305.63
2017-11-18T05:47:46.880Z,101307.65
2017-11-18T05:48:49.373Z,101307.16
2017-11-18T05:49:51.867Z,101313.48
2017-11-18T05:50:54.356Z,101310.09
2017-11-18T05:51:56.835Z,101311.27
2017-11-18T05:52:59.302Z,101306.09
2017-11-18T05:54:01.787Z,101302.30
2017-11-18T05:55:04.291Z,101301.16
2017-11-18T05:56:06.775Z,101300.28
2017-11-18T05:57:09.263Z,101297.23
2017-11-18T05:58:11.746Z,101295.30
2017-11-18T05:59:14.214Z,101301.87
2017-11-18T06:00:16.705Z,101296.68
2017-11-18T06:01:19.190Z,101300.73
2017-11-18T06:02:21.686Z,101297.09
2017-11-18T06:03:24.180Z,101292.70
2017-11-18T06:04:26.662Z,101296.84
2017-11-18T06:05:29.148Z,101298.63
2017-11-18T06:06:31.610Z,101297.48
2017-11-18T06:07:34.084Z,101295.62
2017-11-18T06:08:36.571Z,101298.70
2017-11-18T06:09:39.056Z,101298.37
2017-11-18T06:10:41.532Z,101295.16
2017-11-18T06:11:44.021Z,101301.66
2017-11-18T06:12:46.502Z,101299.13
2017-11-18T06:13:48.976Z,101304.85
2017-11-18T06:14:51.445Z,101309.06
2017-11-18T06:15:53.927Z,101306.75
2017-11-18T06:16:56.407Z,101310.88
2017-11-18T06:17:58.876Z,101304.22
2017-11-18T06:19:01.355Z,101306.37
2017-11-18T06:20:03.819Z,101300.52
2017-11-18T06:21:06.298Z,101305.86
2017-11-18T06:22:08.813Z,101310.88
2017-11-18T06:23:11.298Z,101308.84
2017-11-18T06:24:13.783Z,101314.45
2017-11-18T06:25:16.252Z,101306.02
2017-11-18T06:26:18.726Z,101310.98
2017-11-18T06:27:21.213Z,101313.47
2017-11-18T06:28:23.702Z,101309.11
2017-11-18T06:29:26.188Z,101304.00
2017-11-18T06:30:28.665Z,101296.70
2017-11-18T06:31:31.128Z,101291.59
2017-11-18T06:32:33.605Z,101289.89
2017-11-18T06:33:36.166Z,101284.57
2017-11-18T06:34:38.646Z,101282.55
2017-11-18T06:35:41.131Z,101285.31
2017-11-18T06:36:43.614Z,101291.80
2017-11-18T06:37:46.084Z,101289.20
2017-11-18T06:38:48.566Z,101289.94
2017-11-18T06:39:51.049Z,101293.95
2017-11-18T06:40:53.532Z,101290.38
2017-11-18T06:41:56.014Z,101290.85
2017-11-18T06:42:58.495Z,101284.52
2017-11-18T06:44:00.971Z,101294.41
2017-11-18T06:45:03.460Z,101296.38
2017-11-18T06:46:05.960Z,101294.41
2017-11-18T06:47:08.440Z,101296.38
2017-11-18T06:48:10.955Z,101301.13
2017-11-18T06:49:13.431Z,101298.40
2017-11-18T06:50:15.903Z,101291.72
2017-11-18T06:51:18.386Z,101299.19
2017-11-18T06:52:20.848Z,101296.89
2017-11-18T06:53:23.334Z,101302.66
2017-11-18T06:54:25.797Z,101293.15
2017-11-18T06:55:28.261Z,101297.54
2017-11-18T06:56:30.744Z,101292.45
2017-11-18T06:57:33.226Z,101292.73
2017-11-18T06:58:35.836Z,101291.92
2017-11-18T06:59:38.309Z,101287.42
2017-11-18T07:00:42.579Z,101282.16
2017-11-18T07:01:45.056Z,101285.45
2017-11-18T07:02:47.522Z,101290.98
2017-11-18T07:03:50.008Z,101284.60
2017-11-18T07:04:52.490Z,101278.16
2017-11-18T07:05:54.969Z,101282.09
2017-11-18T07:06:57.445Z,101283.08
2017-11-18T07:07:59.936Z,101288.83
2017-11-18T07:09:02.590Z,101283.44
2017-11-18T07:10:05.120Z,101287.19
2017-11-18T07:11:07.590Z,101287.39
2017-11-18T07:12:10.060Z,101281.26
2017-11-18T07:13:12.546Z,101280.66
2017-11-18T07:14:15.023Z,101278.21
2017-11-18T07:15:17.496Z,101279.14
2017-11-18T07:16:19.965Z,101273.27
2017-11-18T07:17:22.428Z,101273.14
2017-11-18T07:18:24.888Z,101274.63
2017-11-18T07:19:27.390Z,101283.19
2017-11-18T07:20:29.878Z,101278.40
2017-11-18T07:21:32.386Z,101279.92
2017-11-18T07:22:34.934Z,101288.58
2017-11-18T07:23:37.426Z,101290.47
2017-11-18T07:24:39.929Z,101283.44
2017-11-18T07:25:42.423Z,101286.84
2017-11-18T07:26:44.897Z,101284.60
2017-11-18T07:27:47.390Z,101282.27
2017-11-18T07:28:49.878Z,101282.11
2017-11-18T07:29:52.359Z,101288.83
2017-11-18T07:30:54.837Z,101291.42
2017-11-18T07:31:57.318Z,101297.59
2017-11-18T07:32:59.807Z,101286.88
2017-11-18T07:34:02.334Z,101289.22
2017-11-18T07:35:04.801Z,101295.53
2017-11-18T07:36:07.295Z,101291.41
2017-11-18T07:37:09.768Z,101290.03
2017-11-18T07:38:12.246Z,101286.31
2017-11-18T07:39:14.739Z,101290.44
2017-11-18T07:40:17.217Z,101288.81
2017-11-18T07:41:19.681Z,101285.91
2017-11-18T07:42:22.157Z,101292.38
2017-11-18T07:43:24.646Z,101291.27
2017-11-18T07:44:27.131Z,101285.66
2017-11-18T07:45:29.636Z,101284.63
2017-11-18T07:46:32.122Z,101283.91
2017-11-18T07:47:34.594Z,101281.92
2017-11-18T07:48:37.288Z,101277.23
2017-11-18T07:49:39.769Z,101277.49
2017-11-18T07:50:42.241Z,101282.28
2017-11-18T07:51:44.720Z,101277.74
2017-11-18T07:52:47.212Z,101285.44
2017-11-18T07:53:49.846Z,101288.34
2017-11-18T07:54:52.327Z,101290.27
2017-11-18T07:55:54.847Z,101286.70
2017-11-18T07:56:57.338Z,101292.21
2017-11-18T07:57:59.822Z,101283.80
2017-11-18T07:59:02.303Z,101286.55
2017-11-18T08:00:04.772Z,101289.30
2017-11-18T08:01:07.257Z,101284.21
2017-11-18T08:02:09.743Z,101276.77
2017-11-18T08:03:12.213Z,101278.15
2017-11-18T08:04:14.702Z,101273.72
2017-11-18T08:05:17.203Z,101275.09
2017-11-18T08:06:19.687Z,101273.25
2017-11-18T08:07:22.170Z,101285.35
2017-11-18T08:08:24.662Z,101276.80
2017-11-18T08:09:27.146Z,101280.61
2017-11-18T08:10:29.670Z,101284.98
2017-11-18T08:11:32.150Z,101285.24
2017-11-18T08:12:34.620Z,101286.47
2017-11-18T08:13:37.102Z,101277.24
2017-11-18T08:14:39.590Z,101275.30
2017-11-18T08:15:42.047Z,101270.62
2017-11-18T08:16:44.517Z,101268.43
2017-11-18T08:17:46.988Z,101270.37
2017-11-18T08:18:49.467Z,101267.20
2017-11-18T08:19:51.929Z,101272.15
2017-11-18T08:20:54.428Z,101264.86
2017-11-18T08:21:56.892Z,101268.02
2017-11-18T08:22:59.389Z,101268.98
2017-11-18T08:24:01.889Z,101268.27
2017-11-18T08:25:04.485Z,101271.18
2017-11-18T08:26:06.948Z,101266.64
2017-11-18T08:27:09.426Z,101264.30
2017-11-18T08:28:11.906Z,101268.43
2017-11-18T08:29:14.385Z,101263.90
2017-11-18T08:30:16.893Z,101265.27
2017-11-18T08:31:19.360Z,101260.33
2017-11-18T08:32:21.834Z,101260.08
2017-11-18T08:33:24.315Z,101264.05
2017-11-18T08:34:26.782Z,101261.95
2017-11-18T08:35:29.274Z,101256.61
2017-11-18T08:36:36.736Z,101255.23
2017-11-18T08:37:39.222Z,101260.89
2017-11-18T08:38:41.702Z,101255.64
2017-11-18T08:39:44.183Z,101255.08
2017-11-18T08:40:46.673Z,101251.92
2017-11-18T08:41:49.156Z,101244.48
2017-11-18T08:42:51.635Z,101238.27
2017-11-18T08:43:54.140Z,101242.23
2017-11-18T08:44:56.691Z,101240.95
2017-11-18T08:45:59.189Z,101238.05
2017-11-18T08:47:01.661Z,101234.89
2017-11-18T08:48:04.132Z,101231.33
2017-11-18T08:49:06.618Z,101234.64
2017-11-18T08:50:09.123Z,101235.11
2017-11-18T08:51:11.629Z,101236.48
2017-11-18T08:52:14.122Z,101237.45
2017-11-18T08:53:16.606Z,101238.33
2017-11-18T08:54:19.082Z,101237.72
2017-11-18T08:55:21.547Z,101237.50
2017-11-18T08:56:24.066Z,101228.73
2017-11-18T08:57:26.540Z,101234.30
2017-11-18T08:58:29.018Z,101234.77
2017-11-18T08:59:31.499Z,101233.85
2017-11-18T09:00:33.961Z,101232.78
2017-11-18T09:01:36.448Z,101232.53
2017-11-18T09:02:38.929Z,101229.68
2017-11-18T09:03:41.446Z,101224.46
2017-11-18T09:04:43.923Z,101222.83
2017-11-18T09:05:46.395Z,101226.30
2017-11-18T09:06:48.899Z,101218.20
2017-11-18T09:07:51.374Z,101218.36
2017-11-18T09:08:53.860Z,101225.95
2017-11-18T09:09:56.338Z,101223.50
2017-11-18T09:10:58.801Z,101227.94
2017-11-18T09:12:01.301Z,101224.27
2017-11-18T09:13:03.832Z,101220.71
2017-11-18T09:14:06.325Z,101222.80
2017-11-18T09:15:08.876Z,101217.17
2017-11-18T09:16:11.356Z,101214.02
2017-11-18T09:17:13.863Z,101210.86
2017-11-18T09:18:16.448Z,101212.23
2017-11-18T09:19:18.955Z,101214.70
2017-11-18T09:20:21.434Z,101209.05
2017-11-18T09:21:23.900Z,101207.68
2017-11-18T09:22:26.403Z,101207.84
2017-11-18T09:23:28.871Z,101205.92
2017-11-18T09:24:31.382Z,101200.33
2017-11-18T09:25:33.853Z,101200.63
2017-11-18T09:26:36.332Z,101196.66
2017-11-18T09:27:38.822Z,101194.62
2017-11-18T09:28:41.319Z,101196.97
2017-11-18T09:29:43.798Z,101193.16
2017-11-18T09:30:46.286Z,101194.53
2017-11-18T09:31:48.778Z,101190.41
2017-11-18T09:32:51.312Z,101196.31
2017-11-18T09:33:53.770Z,101193.56
2017-11-18T09:34:56.241Z,101193.81
2017-11-18T09:35:58.708Z,101198.34
2017-11-18T09:37:01.200Z,101186.79
2017-11-18T09:38:03.706Z,101191.73
2017-11-18T09:39:06.181Z,101186.23
2017-11-18T09:40:08.672Z,101185.27
2017-11-18T09:41:11.173Z,101186.89
2017-11-18T09:42:13.643Z,101173.55
2017-11-18T09:43:16.146Z,101169.83
2017-11-18T09:44:18.629Z,101171.77
2017-11-18T09:45:21.127Z,101170.23
2017-11-18T09:46:23.647Z,101167.08
2017-11-18T09:47:26.150Z,101167.08
2017-11-18T09:48:28.650Z,101165.30
2017-11-18T09:49:31.138Z,101163.92
2017-11-18T09:50:33.634Z,101161.18
2017-11-18T09:51:36.119Z,101164.89
2017-11-18T09:52:38.600Z,101166.42
2017-11-18T09:53:41.085Z,101161.89
2017-11-18T09:54:43.615Z,101165.61
2017-11-18T09:55:46.083Z,101163.67
2017-11-18T09:56:48.570Z,101166.02
2017-11-18T09:57:51.040Z,101167.95
2017-11-18T09:58:53.531Z,101167.14
2017-11-18T09:59:56.005Z,101169.48
2017-11-18T10:00:58.486Z,101163.33
2017-11-18T10:02:00.966Z,101170.20
2017-11-18T10:03:03.446Z,101159.77
2017-11-18T10:04:05.936Z,101164.86
2017-11-18T10:05:08.400Z,101163.08
2017-11-18T10:06:10.878Z,101164.04
2017-11-18T10:07:13.341Z,101162.57
2017-11-18T10:08:15.804Z,101155.91
2017-11-18T10:09:18.307Z,101166.05
2017-11-18T10:10:20.792Z,101164.58
2017-11-18T10:11:23.274Z,101167.48
2017-11-18T10:12:25.745Z,101165.70
2017-11-18T10:13:28.270Z,101164.23
2017-11-18T10:14:30.781Z,101155.33
2017-11-18T10:15:33.277Z,101159.20
2017-11-18T10:16:35.761Z,101162.50
2017-11-18T10:17:38.246Z,101157.16
2017-11-18T10:18:40.729Z,101156.91
2017-11-18T10:19:43.243Z,101160.22
2017-11-18T10:20:45.717Z,101156.09
2017-11-18T10:21:48.186Z,101153.25
2017-11-18T10:22:50.653Z,101152.84
2017-11-18T10:23:53.140Z,101153.25
2017-11-18T10:24:55.644Z,101152.03
2017-11-18T10:25:58.125Z,101150.50
2017-11-18T10:27:00.615Z,101152.03
2017-11-18T10:28:03.080Z,101151.63
2017-11-18T10:29:05.552Z,101150.66
2017-11-18T10:30:08.032Z,101147.91
2017-11-18T10:31:10.505Z,101149.28
2017-11-18T10:32:12.994Z,101151.47
2017-11-18T10:33:15.475Z,101140.17
2017-11-18T10:34:17.948Z,101140.73
2017-11-18T10:35:20.441Z,101137.48
2017-11-18T10:36:22.923Z,101134.63
2017-11-18T10:37:25.394Z,101135.88
2017-11-18T10:38:27.878Z,101130.69
2017-11-18T10:39:30.360Z,101135.83
2017-11-18T10:40:32.858Z,101137.25
2017-11-18T10:41:35.348Z,101140.62
2017-11-18T10:42:37.834Z,101142.27
2017-11-18T10:43:40.301Z,101138.98
2017-11-18T10:44:42.791Z,101136.29
2017-11-18T10:45:45.307Z,101135.78
2017-11-18T10:46:47.790Z,101134.86
2017-11-18T10:47:50.269Z,101139.29
2017-11-18T10:48:52.751Z,101136.85
2017-11-18T10:49:55.247Z,101139.50
2017-11-18T10:50:57.734Z,101126.62
2017-11-18T10:52:00.210Z,101129.25
2017-11-18T10:53:02.685Z,101123.09
2017-11-18T10:54:05.171Z,101121.47
2017-11-18T10:55:07.658Z,101129.05
2017-11-18T10:56:10.144Z,101121.52
2017-11-18T10:57:12.624Z,101120.30
2017-11-18T10:58:15.121Z,101120.60
2017-11-18T10:59:17.608Z,101121.72
2017-11-18T11:00:20.068Z,101117.34
2017-11-18T11:01:22.568Z,101114.50
2017-11-18T11:02:25.046Z,101113.28
2017-11-18T11:03:27.504Z,101112.06
2017-11-18T11:04:29.996Z,101119.08
2017-11-18T11:05:32.465Z,101117.86
2017-11-18T11:06:34.967Z,101116.20
2017-11-18T11:07:37.433Z,101114.16
2017-11-18T11:08:39.912Z,101115.13
2017-11-18T11:09:42.373Z,101112.69
2017-11-18T11:10:44.858Z,101108.16
2017-11-18T11:11:47.366Z,101107.09
2017-11-18T11:12:50.178Z,101102.57
2017-11-18T11:13:52.658Z,101108.22
2017-11-18T11:14:55.136Z,101101.09
2017-11-18T11:15:57.620Z,101102.47
2017-11-18T11:17:00.129Z,101103.18
2017-11-18T11:18:02.591Z,101093.72
2017-11-18T11:19:05.066Z,101101.96
2017-11-18T11:20:07.525Z,101095.25
2017-11-18T11:21:09.988Z,101092.66
2017-11-18T11:22:12.496Z,101089.09
2017-11-18T11:23:14.955Z,101092.41
2017-11-18T11:24:17.430Z,101082.13
2017-11-18T11:25:19.911Z,101081.73
2017-11-18T11:26:22.381Z,101085.16
2017-11-18T11:27:24.882Z,101080.94
2017-11-18T11:28:27.361Z,101076.41
2017-11-18T11:29:29.820Z,101070.52
2017-11-18T11:30:32.303Z,101072.45
2017-11-18T11:31:34.785Z,101067.11
2017-11-18T11:32:37.290Z,101063.55
2017-11-18T11:33:39.770Z,101051.34
2017-11-18T11:34:42.277Z,101040.52
2017-11-18T11:35:44.759Z,101043.83
2017-11-18T11:36:47.234Z,101035.59
2017-11-18T11:37:49.744Z,101038.33
2017-11-18T11:38:52.221Z,101037.27
2017-11-18T11:39:54.713Z,101030.41
2017-11-18T11:40:57.190Z,101033.71
2017-11-18T11:41:59.661Z,101034.67
2017-11-18T11:43:02.165Z,101023.44
2017-11-18T11:44:04.641Z,101017.70
2017-11-18T11:45:07.116Z,101019.07
2017-11-18T11:46:09.584Z,101011.40
2017-11-18T11:47:12.044Z,101013.48
2017-11-18T11:48:14.530Z,101015.82
2017-11-18T11:49:17.015Z,101010.48
2017-11-18T11:50:19.496Z,101013.79
2017-11-18T11:51:22.051Z,101012.56
2017-11-18T11:52:24.526Z,101006.23
2017-11-18T11:53:27.013Z,101003.64